Time;durP1;ratioP1;P1;durP2;ratioP2;P2;SDS_P1;SDS_P2;PMS_P1;PMS_P2;Temp;Humidity;BMP_temperature;BMP_pressure;BME280_temperature;BME280_humidity;BME280_pressure;Samples;Min_cycle;Max_cycle;Signal;HPM_P1;HPM_P2
2022/04/20 00:01:34;;;;;;;9.38;6.55;;;14.00;99.90;;;;;;5021332;28;20034;-71
2022/04/20 00:04:00;;;;;;;10.60;5.90;;;14.10;99.90;;;;;;5035431;28;20088;-70
2022/04/20 00:06:27;;;;;;;11.63;6.13;;;14.20;99.90;;;;;;5034528;28;21166;-71
2022/04/20 00:08:53;;;;;;;9.45;5.55;;;14.20;99.90;;;;;;5019057;28;20033;-71
2022/04/20 00:11:19;;;;;;;11.50;6.00;;;14.20;99.90;;;;;;5018230;28;20077;-71
2022/04/20 00:13:45;;;;;;;7.85;5.20;;;14.30;99.90;;;;;;5017784;28;20400;-71
2022/04/20 00:16:12;;;;;;;7.60;4.75;;;14.30;99.90;;;;;;5016438;28;20045;-71
2022/04/20 00:18:38;;;;;;;7.75;5.47;;;14.30;99.90;;;;;;5033014;28;20037;-71
2022/04/20 00:21:04;;;;;;;8.27;5.22;;;14.40;99.90;;;;;;5032547;28;20037;-72
2022/04/20 00:23:31;;;;;;;10.82;4.95;;;14.40;99.90;;;;;;5018049;28;20030;-72
2022/04/20 00:25:58;;;;;;;8.00;5.50;;;14.40;99.90;;;;;;5018254;28;20358;-71
2022/04/20 00:28:24;;;;;;;7.05;5.75;;;14.40;99.90;;;;;;5001750;28;20168;-71
2022/04/20 00:30:51;;;;;;;9.05;5.68;;;14.40;99.90;;;;;;5014795;28;20037;-71
2022/04/20 00:33:17;;;;;;;12.63;6.05;;;14.40;99.90;;;;;;5032062;28;20034;-71
2022/04/20 00:35:44;;;;;;;11.50;5.40;;;14.40;99.90;;;;;;5034395;28;20469;-71
2022/04/20 00:38:10;;;;;;;9.05;5.82;;;14.40;99.90;;;;;;5037195;28;20401;-71
2022/04/20 00:40:36;;;;;;;8.15;5.57;;;14.40;99.90;;;;;;5002433;28;20038;-72
2022/04/20 00:43:02;;;;;;;8.23;5.80;;;14.30;99.90;;;;;;5019711;28;20049;-72
2022/04/20 00:45:30;;;;;;;8.88;5.15;;;14.30;99.90;;;;;;5017894;28;20045;-71
2022/04/20 00:47:59;;;;;;;7.25;4.85;;;14.30;99.90;;;;;;5018955;28;20462;-71
2022/04/20 00:50:25;;;;;;;7.18;5.07;;;14.30;99.90;;;;;;5033898;28;20595;-72
2022/04/20 00:52:52;;;;;;;8.02;5.10;;;14.30;99.90;;;;;;5033124;28;20385;-72
2022/04/20 00:55:18;;;;;;;7.75;5.20;;;14.30;99.90;;;;;;5016635;28;20040;-71
2022/04/20 00:57:44;;;;;;;9.15;5.43;;;14.30;99.90;;;;;;5032787;28;20038;-72
2022/04/20 01:00:10;;;;;;;8.32;5.38;;;14.30;99.90;;;;;;5004920;28;20052;-72
2022/04/20 01:02:37;;;;;;;7.55;5.30;;;14.30;99.90;;;;;;5014071;28;20053;-71
2022/04/20 01:05:03;;;;;;;7.93;5.00;;;14.20;99.90;;;;;;4999276;28;20076;-72
2022/04/20 01:07:39;;;;;;;6.80;5.15;;;14.20;99.90;;;;;;5000679;28;20038;-71
2022/04/20 01:10:06;;;;;;;9.13;4.88;;;14.20;99.90;;;;;;5017711;28;20512;-71
2022/04/20 01:12:33;;;;;;;7.63;5.18;;;14.20;99.90;;;;;;5016484;28;20045;-71
2022/04/20 01:14:59;;;;;;;7.28;5.07;;;14.20;99.90;;;;;;5037290;28;20099;-71
2022/04/20 01:17:25;;;;;;;6.63;4.53;;;14.10;99.90;;;;;;5002678;28;20045;-71
2022/04/20 01:19:51;;;;;;;9.23;4.75;;;14.10;99.90;;;;;;5016327;28;20131;-73
2022/04/20 01:22:18;;;;;;;8.57;5.22;;;14.10;99.90;;;;;;5016597;28;20478;-73
2022/04/20 01:24:45;;;;;;;7.32;4.30;;;14.10;99.90;;;;;;4998874;28;20041;-72
2022/04/20 01:27:12;;;;;;;6.68;4.95;;;14.00;99.90;;;;;;5030580;28;20111;-72
2022/04/20 01:29:38;;;;;;;9.07;4.78;;;14.00;99.90;;;;;;5017284;28;20045;-72
2022/04/20 01:32:05;;;;;;;7.47;5.00;;;13.90;99.90;;;;;;5018506;28;20044;-71
2022/04/20 01:34:33;;;;;;;7.63;4.93;;;13.90;99.90;;;;;;5019122;28;20037;-72
2022/04/20 01:36:59;;;;;;;7.72;5.15;;;13.80;99.90;;;;;;5019008;28;20041;-71
2022/04/20 01:39:24;;;;;;;9.32;4.75;;;13.80;99.90;;;;;;5017913;28;20038;-71
2022/04/20 01:41:51;;;;;;;8.15;4.70;;;13.80;99.90;;;;;;5003529;28;20092;-71
2022/04/20 01:44:17;;;;;;;7.65;4.30;;;13.80;99.90;;;;;;5019750;28;20133;-71
2022/04/20 01:46:43;;;;;;;8.07;4.50;;;13.80;99.90;;;;;;5014146;28;20137;-72
2022/04/20 01:49:09;;;;;;;8.38;4.10;;;13.80;99.90;;;;;;5003712;28;20080;-71
2022/04/20 01:51:46;;;;;;;5.13;3.78;;;13.80;99.90;;;;;;5022277;28;20025;-72
2022/04/20 01:54:13;;;;;;;6.35;3.47;;;13.80;99.90;;;;;;5035226;28;20048;-72
2022/04/20 01:56:40;;;;;;;9.98;4.22;;;13.80;99.90;;;;;;5019768;28;20527;-71
2022/04/20 01:59:06;;;;;;;6.65;3.88;;;13.80;99.90;;;;;;5036256;28;20064;-71
2022/04/20 02:04:18;;;;;;;5.60;3.50;;;13.70;99.90;;;;;;5021991;28;20148;-71
2022/04/20 02:06:45;;;;;;;6.50;3.75;;;13.60;99.90;;;;;;5004112;28;20357;-73
2022/04/20 02:09:11;;;;;;;4.80;3.35;;;13.60;99.90;;;;;;5019260;28;20046;-72
2022/04/20 02:11:38;;;;;;;5.18;3.42;;;13.70;99.90;;;;;;5019853;28;20045;-71
2022/04/20 02:14:05;;;;;;;5.07;3.20;;;13.60;99.90;;;;;;5028417;28;20055;-71
2022/04/20 02:16:32;;;;;;;7.05;3.92;;;13.60;99.90;;;;;;5020597;28;20381;-71
2022/04/20 02:18:57;;;;;;;5.28;3.30;;;13.60;99.90;;;;;;5004074;28;20482;-70
2022/04/20 02:21:24;;;;;;;9.70;3.88;;;13.60;99.90;;;;;;5015920;28;20117;-72
2022/04/20 02:23:49;;;;;;;11.43;3.60;;;13.60;99.90;;;;;;5033772;28;20042;-72
2022/04/20 02:26:16;;;;;;;6.70;3.92;;;13.60;99.90;;;;;;5025605;28;20045;-71
2022/04/20 02:28:42;;;;;;;6.88;3.88;;;13.60;99.90;;;;;;5019116;28;20034;-72
2022/04/20 02:31:07;;;;;;;7.85;4.00;;;13.50;99.90;;;;;;5018481;28;20034;-71
2022/04/20 02:33:33;;;;;;;6.75;3.55;;;13.50;99.90;;;;;;5035352;28;20107;-71
2022/04/20 02:35:59;;;;;;;8.25;4.05;;;13.50;99.90;;;;;;5016567;28;20042;-71
2022/04/20 02:38:27;;;;;;;6.30;3.97;;;13.50;99.90;;;;;;5015154;28;20049;-71
2022/04/20 02:40:53;;;;;;;11.73;4.20;;;13.50;99.90;;;;;;5019388;28;20030;-70
2022/04/20 02:43:19;;;;;;;6.45;3.70;;;13.50;99.90;;;;;;5018273;28;20038;-71
2022/04/20 02:45:45;;;;;;;7.70;3.75;;;13.50;99.90;;;;;;5002345;28;20094;-71
2022/04/20 02:48:11;;;;;;;8.77;4.63;;;13.50;99.90;;;;;;5037787;28;20547;-70
2022/04/20 02:50:37;;;;;;;4.72;3.88;;;13.40;99.90;;;;;;5021484;28;20125;-71
2022/04/20 02:53:03;;;;;;;6.80;4.13;;;13.40;99.90;;;;;;5017279;28;20053;-71
2022/04/20 02:55:29;;;;;;;4.88;3.28;;;13.50;99.90;;;;;;5037756;28;20117;-71
2022/04/20 02:57:56;;;;;;;8.23;4.10;;;13.50;99.90;;;;;;5020137;28;20042;-71
2022/04/20 03:00:23;;;;;;;5.93;3.60;;;13.40;99.90;;;;;;4999332;28;20172;-71
2022/04/20 03:02:49;;;;;;;7.30;3.75;;;13.40;99.90;;;;;;5036620;28;20038;-72
2022/04/20 03:05:15;;;;;;;8.43;4.30;;;13.40;99.90;;;;;;4999338;28;20046;-72
2022/04/20 03:07:41;;;;;;;9.20;4.00;;;13.40;99.90;;;;;;5035722;28;20046;-71
2022/04/20 03:10:08;;;;;;;7.72;4.43;;;13.40;99.90;;;;;;5019183;28;20056;-71
2022/04/20 03:12:35;;;;;;;7.57;3.72;;;13.40;99.90;;;;;;5001914;28;20056;-70
2022/04/20 03:15:02;;;;;;;7.82;3.80;;;13.40;99.90;;;;;;5018525;28;20041;-71
2022/04/20 03:17:28;;;;;;;8.15;4.32;;;13.40;99.90;;;;;;5019197;28;20037;-71
2022/04/20 03:19:54;;;;;;;6.30;3.83;;;13.40;99.90;;;;;;5006071;28;20046;-72
2022/04/20 03:22:21;;;;;;;5.28;3.85;;;13.40;99.90;;;;;;5017588;28;20570;-72
2022/04/20 03:24:48;;;;;;;6.22;3.85;;;13.40;99.90;;;;;;5018560;28;20054;-71
2022/04/20 03:27:13;;;;;;;7.03;3.85;;;13.30;99.90;;;;;;4995184;28;20387;-71
2022/04/20 03:29:41;;;;;;;5.30;3.80;;;13.30;99.90;;;;;;5002107;28;20184;-71
2022/04/20 03:32:11;;;;;;;7.75;4.10;;;13.30;99.90;;;;;;5014465;28;20488;-71
2022/04/20 03:34:38;;;;;;;6.68;4.13;;;13.30;99.90;;;;;;5035437;28;20424;-71
2022/04/20 03:37:06;;;;;;;8.43;3.78;;;13.20;99.90;;;;;;5017405;28;20034;-71
2022/04/20 03:39:32;;;;;;;7.00;3.72;;;13.20;99.90;;;;;;5015829;28;20482;-72
2022/04/20 03:41:58;;;;;;;5.53;4.13;;;13.10;99.90;;;;;;5018748;28;20053;-71
2022/04/20 03:44:24;;;;;;;6.95;3.85;;;13.10;99.90;;;;;;4998085;28;20069;-72
2022/04/20 03:46:51;;;;;;;7.45;4.30;;;13.00;99.90;;;;;;5019266;28;20045;-71
2022/04/20 03:49:16;;;;;;;5.28;4.00;;;12.90;99.90;;;;;;5001690;28;20041;-71
2022/04/20 03:51:45;;;;;;;8.88;4.35;;;12.90;99.90;;;;;;5034256;28;20052;-71
2022/04/20 03:54:12;;;;;;;12.00;4.47;;;12.80;99.90;;;;;;4999133;28;20029;-72
2022/04/20 03:59:23;;;;;;;8.27;4.18;;;12.80;99.90;;;;;;5019613;28;21561;-72
2022/04/20 04:01:51;;;;;;;7.32;4.10;;;12.90;99.90;;;;;;5015242;28;20026;-71
2022/04/20 04:04:19;;;;;;;6.30;4.55;;;12.90;99.90;;;;;;5016508;28;20059;-71
2022/04/20 04:06:45;;;;;;;8.93;3.92;;;12.90;99.90;;;;;;5017883;28;20041;-72
2022/04/20 04:09:12;;;;;;;9.00;4.68;;;12.90;99.90;;;;;;5019061;28;20515;-71
2022/04/20 04:11:39;;;;;;;6.15;4.10;;;12.90;99.90;;;;;;5033711;28;20076;-72
2022/04/20 04:14:05;;;;;;;6.78;4.72;;;12.90;99.90;;;;;;5015824;28;20037;-71
2022/04/20 04:16:36;;;;;;;6.53;4.55;;;13.00;99.90;;;;;;4997970;28;20117;-71
2022/04/20 04:19:05;;;;;;;6.47;4.30;;;12.90;99.90;;;;;;5028210;28;20095;-71
2022/04/20 04:21:31;;;;;;;5.80;4.05;;;13.00;99.90;;;;;;5023361;28;20079;-71
2022/04/20 04:23:58;;;;;;;7.30;4.78;;;13.00;99.90;;;;;;5035229;28;20614;-71
2022/04/20 04:26:25;;;;;;;9.40;4.40;;;13.00;99.90;;;;;;5037139;28;20697;-71
2022/04/20 04:28:53;;;;;;;9.02;4.55;;;13.00;99.90;;;;;;4999876;28;20034;-71
2022/04/20 04:31:19;;;;;;;5.47;4.47;;;13.00;99.90;;;;;;5032784;28;20129;-72
2022/04/20 04:33:46;;;;;;;6.18;4.22;;;12.90;99.90;;;;;;5030231;28;20128;-72
2022/04/20 04:36:13;;;;;;;6.32;4.50;;;13.00;99.90;;;;;;5000242;28;20038;-72
2022/04/20 04:38:38;;;;;;;8.38;5.05;;;13.00;99.90;;;;;;5018361;28;20053;-71
2022/04/20 04:41:04;;;;;;;8.48;4.28;;;13.00;99.90;;;;;;5020556;28;20045;-72
2022/04/20 04:43:31;;;;;;;16.55;5.40;;;13.00;99.90;;;;;;5000261;28;20036;-70
2022/04/20 04:48:42;;;;;;;6.93;3.97;;;13.10;99.90;;;;;;5017573;28;20657;-72
2022/04/20 04:51:10;;;;;;;10.48;4.35;;;13.10;99.90;;;;;;5014275;28;20052;-71
2022/04/20 04:53:38;;;;;;;7.43;4.55;;;13.00;99.90;;;;;;5018690;28;20043;-72
2022/04/20 04:56:05;;;;;;;8.73;5.43;;;13.00;99.90;;;;;;5014928;28;20494;-72
2022/04/20 04:58:31;;;;;;;8.13;4.65;;;13.00;99.90;;;;;;5021211;28;20130;-71
2022/04/20 05:00:58;;;;;;;6.78;4.25;;;13.20;99.90;;;;;;5023212;28;20420;-71
2022/04/20 05:03:25;;;;;;;9.45;4.32;;;13.30;99.90;;;;;;5020553;28;20038;-72
2022/04/20 05:05:52;;;;;;;8.20;4.75;;;13.50;99.90;;;;;;5018391;28;20473;-72
2022/04/20 05:08:18;;;;;;;5.55;4.18;;;13.60;99.90;;;;;;5015877;28;20038;-71
2022/04/20 05:10:44;;;;;;;9.65;4.55;;;13.70;99.90;;;;;;5017803;28;20049;-71
2022/04/20 05:13:10;;;;;;;10.15;4.75;;;13.70;99.90;;;;;;5035472;28;20030;-72
2022/04/20 05:15:37;;;;;;;9.93;4.10;;;13.80;99.90;;;;;;5022502;28;20436;-74
2022/04/20 05:18:04;;;;;;;8.13;4.22;;;13.90;99.90;;;;;;5007769;28;20073;-72
2022/04/20 05:20:30;;;;;;;8.23;4.47;;;14.00;99.90;;;;;;4997059;28;20029;-71
2022/04/20 05:22:55;;;;;;;7.72;4.22;;;14.00;99.90;;;;;;5004574;28;20505;-72
2022/04/20 05:25:22;;;;;;;7.22;4.32;;;14.00;99.90;;;;;;4999865;28;20048;-72
2022/04/20 05:27:49;;;;;;;5.25;3.67;;;14.10;99.90;;;;;;5015824;28;20131;-71
2022/04/20 05:30:15;;;;;;;11.07;4.50;;;14.10;99.90;;;;;;5033590;28;20045;-73
2022/04/20 05:32:42;;;;;;;6.78;4.32;;;14.20;99.90;;;;;;5022891;28;20034;-72
2022/04/20 05:35:10;;;;;;;7.90;4.07;;;14.20;99.90;;;;;;5018209;28;20040;-72
2022/04/20 05:43:07;;;;;;;5.55;3.40;;;14.30;99.90;;;;;;5021565;28;20099;-72
2022/04/20 05:45:32;;;;;;;6.53;3.55;;;14.40;99.90;;;;;;5018469;28;20068;-72
2022/04/20 05:47:58;;;;;;;8.85;3.97;;;14.40;99.90;;;;;;5016266;28;21134;-73
2022/04/20 05:50:26;;;;;;;8.13;3.90;;;14.40;99.90;;;;;;4980950;28;20029;-72
2022/04/20 05:52:52;;;;;;;6.40;3.58;;;14.50;99.90;;;;;;5018477;28;20571;-72
2022/04/20 05:55:18;;;;;;;5.75;3.25;;;14.50;99.90;;;;;;5002615;28;20138;-71
2022/04/20 05:57:47;;;;;;;5.82;3.75;;;14.50;99.90;;;;;;5019502;28;20053;-72
2022/04/20 06:00:15;;;;;;;9.27;3.10;;;14.60;99.90;;;;;;4997492;28;20045;-72
2022/04/20 06:02:42;;;;;;;7.40;3.35;;;14.60;99.90;;;;;;5004720;28;20461;-71
2022/04/20 06:05:08;;;;;;;6.30;3.17;;;14.60;99.90;;;;;;5021820;28;20054;-72
2022/04/20 06:07:35;;;;;;;6.03;3.38;;;14.60;99.90;;;;;;5031266;28;20033;-70
2022/04/20 06:10:00;;;;;;;7.72;2.97;;;14.60;99.90;;;;;;5017084;28;20828;-70
2022/04/20 06:12:26;;;;;;;9.95;3.38;;;14.60;99.90;;;;;;5001628;28;20042;-71
2022/04/20 06:14:52;;;;;;;8.32;3.00;;;14.60;99.90;;;;;;5014894;28;20048;-71
2022/04/20 06:17:20;;;;;;;8.43;3.25;;;14.70;99.90;;;;;;5012611;28;20535;-72
2022/04/20 06:19:46;;;;;;;4.15;2.67;;;14.80;99.90;;;;;;5022969;28;20045;-72
2022/04/20 06:22:12;;;;;;;6.30;2.80;;;14.80;99.90;;;;;;5021520;28;20056;-72
2022/04/20 06:24:38;;;;;;;6.05;3.10;;;14.80;99.90;;;;;;5022621;28;20160;-72
2022/04/20 06:27:05;;;;;;;9.50;3.50;;;14.80;99.90;;;;;;5019791;28;20129;-72
2022/04/20 06:29:31;;;;;;;5.47;3.17;;;14.80;99.90;;;;;;5023747;28;20122;-72
2022/04/20 06:31:57;;;;;;;6.82;2.97;;;14.90;99.90;;;;;;5025173;28;20045;-73
2022/04/20 06:34:24;;;;;;;6.93;3.10;;;14.90;99.90;;;;;;5022831;28;20045;-76
2022/04/20 06:36:50;;;;;;;7.05;3.20;;;15.00;99.90;;;;;;5024681;28;20041;-72
2022/04/20 06:39:16;;;;;;;4.80;3.00;;;15.00;99.90;;;;;;5038355;28;20811;-72
2022/04/20 06:41:42;;;;;;;5.97;2.88;;;15.10;99.90;;;;;;5021840;28;20102;-72
2022/04/20 06:44:08;;;;;;;7.88;3.00;;;15.10;99.90;;;;;;5022772;28;20481;-74
2022/04/20 06:46:34;;;;;;;5.30;3.13;;;15.10;99.90;;;;;;5019017;28;20038;-71
2022/04/20 06:49:01;;;;;;;6.45;2.85;;;15.10;99.90;;;;;;5019467;28;20048;-71
2022/04/20 06:58:31;;;;;;;6.38;2.92;;;15.10;99.90;;;;;;5035166;28;20033;-72
2022/04/20 06:59:43;;;;;;;9.13;3.50;;;15.10;99.90;;;;;;5020772;28;20071;-72
2022/04/20 07:02:09;;;;;;;11.38;3.10;;;15.10;99.90;;;;;;5003217;28;20037;-73
2022/04/20 07:04:35;;;;;;;6.10;3.05;;;15.10;99.90;;;;;;5006687;28;20033;-73
2022/04/20 07:07:02;;;;;;;6.57;3.00;;;15.10;99.90;;;;;;5020151;28;20069;-73
2022/04/20 07:09:28;;;;;;;6.45;3.17;;;15.10;99.90;;;;;;5006658;28;20042;-74
2022/04/20 07:11:54;;;;;;;5.10;2.70;;;15.10;99.90;;;;;;5004361;28;20443;-74
2022/04/20 07:14:20;;;;;;;7.55;2.90;;;15.10;99.90;;;;;;4993744;28;20980;-74
2022/04/20 07:16:45;;;;;;;6.82;3.50;;;15.10;99.90;;;;;;4986541;28;20239;-72
2022/04/20 07:19:11;;;;;;;6.28;3.30;;;15.00;99.90;;;;;;4991849;28;20044;-72
2022/04/20 07:21:39;;;;;;;7.13;3.30;;;15.00;99.90;;;;;;5008098;28;20033;-71
2022/04/20 07:24:05;;;;;;;6.57;3.33;;;15.00;99.90;;;;;;5008741;28;20132;-71
2022/04/20 07:26:31;;;;;;;7.13;2.97;;;14.90;99.90;;;;;;5008080;28;20125;-72
2022/04/20 07:28:57;;;;;;;4.47;2.85;;;15.00;99.90;;;;;;5030226;28;20444;-73
2022/04/20 07:31:24;;;;;;;5.63;3.13;;;15.00;99.90;;;;;;5030816;28;20038;-72
2022/04/20 07:33:50;;;;;;;7.90;3.15;;;15.00;99.90;;;;;;5037414;28;20053;-72
2022/04/20 07:36:15;;;;;;;6.90;2.90;;;15.00;99.90;;;;;;5020459;28;20575;-74
2022/04/20 07:38:42;;;;;;;7.05;2.97;;;15.00;99.90;;;;;;5023633;28;20033;-72
2022/04/20 07:41:09;;;;;;;6.18;2.78;;;15.00;99.90;;;;;;5020451;28;20034;-72
2022/04/20 07:43:36;;;;;;;6.70;3.10;;;15.10;99.90;;;;;;5040001;28;20035;-72
2022/04/20 07:46:02;;;;;;;9.35;3.10;;;15.00;99.90;;;;;;4999806;28;20057;-73
2022/04/20 07:48:29;;;;;;;5.10;3.25;;;15.00;99.90;;;;;;4998686;28;20030;-73
2022/04/20 07:50:55;;;;;;;4.85;3.20;;;15.00;99.90;;;;;;5005078;28;20042;-73
2022/04/20 07:53:23;;;;;;;6.63;2.80;;;15.00;99.90;;;;;;5000653;28;20037;-72
2022/04/20 07:55:49;;;;;;;5.40;2.83;;;15.00;99.90;;;;;;5013697;28;20363;-73
2022/04/20 07:58:15;;;;;;;4.57;2.55;;;15.10;99.90;;;;;;5000791;28;20048;-72
2022/04/20 08:00:41;;;;;;;4.38;2.72;;;15.10;99.90;;;;;;5002041;28;20585;-72
2022/04/20 08:03:13;;;;;;;5.57;2.78;;;15.10;99.90;;;;;;5000437;28;20402;-71
2022/04/20 08:05:40;;;;;;;5.25;2.88;;;15.10;99.90;;;;;;5000863;28;20076;-72
2022/04/20 08:08:08;;;;;;;6.43;2.63;;;15.10;99.90;;;;;;5015120;28;20042;-72
2022/04/20 08:10:36;;;;;;;6.20;2.95;;;15.10;99.90;;;;;;5019633;28;20100;-73
2022/04/20 08:14:09;;;;;;;5.75;2.92;;;15.10;99.90;;;;;;5013001;28;20080;-73
2022/04/20 08:15:51;;;;;;;5.47;2.65;;;15.10;99.90;;;;;;4998667;28;20095;-74
2022/04/20 08:18:18;;;;;;;10.80;3.55;;;15.20;99.90;;;;;;4978147;28;20046;-73
2022/04/20 08:20:45;;;;;;;7.05;3.10;;;15.30;99.90;;;;;;5018327;28;20038;-73
2022/04/20 08:23:11;;;;;;;6.78;3.72;;;15.20;99.90;;;;;;5011495;28;20042;-74
2022/04/20 08:25:37;;;;;;;6.45;3.05;;;15.20;99.90;;;;;;4997717;28;20038;-72
2022/04/20 08:28:04;;;;;;;6.68;2.70;;;15.30;99.90;;;;;;5011341;28;20046;-73
2022/04/20 08:30:30;;;;;;;7.18;2.72;;;15.30;99.90;;;;;;5003380;28;20119;-73
2022/04/20 08:32:55;;;;;;;5.32;2.95;;;15.30;99.90;;;;;;4980417;28;20077;-72
2022/04/20 08:35:21;;;;;;;5.78;2.92;;;15.30;99.90;;;;;;4981879;28;20129;-72
2022/04/20 08:37:49;;;;;;;6.40;3.13;;;15.30;99.90;;;;;;4997991;28;20108;-72
2022/04/20 08:40:15;;;;;;;9.27;2.88;;;15.40;99.90;;;;;;4981315;28;20176;-71
2022/04/20 08:42:44;;;;;;;7.45;2.67;;;15.30;99.90;;;;;;4981510;28;20038;-73
2022/04/20 08:45:13;;;;;;;8.50;3.20;;;15.30;99.90;;;;;;4996958;28;20425;-72
2022/04/20 08:47:40;;;;;;;9.30;3.45;;;15.30;99.90;;;;;;4996411;28;20134;-72
2022/04/20 08:50:09;;;;;;;6.53;2.70;;;15.30;99.90;;;;;;5014881;28;20096;-73
2022/04/20 08:52:37;;;;;;;5.47;2.92;;;15.30;99.90;;;;;;4999270;28;20042;-73
2022/04/20 08:55:05;;;;;;;7.72;3.00;;;15.30;99.90;;;;;;4998020;28;20133;-73
2022/04/20 08:57:33;;;;;;;10.10;3.20;;;15.30;99.90;;;;;;5022067;28;20109;-72
2022/04/20 09:00:01;;;;;;;17.27;3.75;;;15.30;99.90;;;;;;4987049;28;20514;-72
2022/04/20 09:02:28;;;;;;;33.92;3.95;;;15.40;99.90;;;;;;5014019;28;20041;-72
2022/04/20 09:04:56;;;;;;;12.40;3.25;;;15.40;99.90;;;;;;5004786;28;20049;-72
2022/04/20 09:07:22;;;;;;;7.35;2.70;;;15.60;99.90;;;;;;4996753;28;20049;-73
2022/04/20 09:09:48;;;;;;;8.27;2.70;;;15.80;99.90;;;;;;4999920;28;20378;-71
2022/04/20 09:12:26;;;;;;;6.22;2.88;;;15.90;99.90;;;;;;4998127;28;20576;-72
2022/04/20 09:14:53;;;;;;;6.72;2.70;;;15.90;99.90;;;;;;5012820;28;20046;-72
2022/04/20 09:17:24;;;;;;;9.20;3.10;;;16.10;99.90;;;;;;5001441;28;20042;-71
2022/04/20 09:19:55;;;;;;;8.15;3.17;;;16.20;99.90;;;;;;4996491;28;20121;-71
2022/04/20 09:22:30;;;;;;;10.07;3.10;;;16.40;99.90;;;;;;4984103;28;20046;-73
2022/04/20 09:25:08;;;;;;;13.40;3.10;;;16.40;99.90;;;;;;4998647;28;20050;-72
2022/04/20 09:27:36;;;;;;;7.43;3.10;;;16.60;99.90;;;;;;5012945;28;20042;-72
2022/04/20 09:30:04;;;;;;;10.43;3.28;;;16.60;99.90;;;;;;5012360;28;20074;-72
2022/04/20 09:32:35;;;;;;;7.43;3.67;;;16.50;99.90;;;;;;5012004;28;20069;-73
2022/04/20 09:35:03;;;;;;;7.38;3.17;;;16.20;99.90;;;;;;5002257;28;20042;-72
2022/04/20 09:37:31;;;;;;;10.70;3.30;;;16.00;99.90;;;;;;5012486;28;20037;-75
2022/04/20 09:39:57;;;;;;;7.85;3.30;;;15.90;99.90;;;;;;5010336;28;20436;-72
2022/04/20 09:42:24;;;;;;;6.80;3.10;;;15.70;99.90;;;;;;5007203;28;20791;-72
2022/04/20 09:44:57;;;;;;;11.45;3.15;;;15.60;99.90;;;;;;4995120;28;20042;-72
2022/04/20 09:50:11;;;;;;;12.93;3.42;;;15.60;99.90;;;;;;4983477;28;20065;-72
2022/04/20 09:52:47;;;;;;;10.32;3.35;;;15.50;99.90;;;;;;4996979;28;20034;-73
2022/04/20 09:55:36;;;;;;;7.80;3.58;;;15.60;99.90;;;;;;5014176;28;20042;-72
2022/04/20 09:58:24;;;;;;;11.00;3.60;;;15.70;99.90;;;;;;5012378;28;20034;-73
2022/04/20 10:00:52;;;;;;;8.60;3.40;;;15.60;99.90;;;;;;4981811;28;20042;-73
2022/04/20 10:03:29;;;;;;;8.38;3.13;;;15.70;99.90;;;;;;5003659;28;20042;-73
2022/04/20 10:05:59;;;;;;;6.30;3.05;;;15.80;99.90;;;;;;5018394;28;20050;-73
2022/04/20 10:08:25;;;;;;;12.35;3.80;;;15.70;99.90;;;;;;5011532;28;20050;-72
2022/04/20 10:10:54;;;;;;;6.75;3.08;;;15.80;99.90;;;;;;5015943;28;20567;-72
2022/04/20 10:13:22;;;;;;;6.60;2.95;;;15.70;99.90;;;;;;4999809;28;20037;-72
2022/04/20 10:16:08;;;;;;;9.75;3.38;;;15.70;99.90;;;;;;5015647;28;20076;-72
2022/04/20 10:18:40;;;;;;;11.02;3.35;;;15.70;99.90;;;;;;5002658;28;20034;-72
2022/04/20 10:21:11;;;;;;;8.10;3.60;;;15.80;99.90;;;;;;5014570;28;20042;-73
2022/04/20 10:23:49;;;;;;;7.15;3.20;;;15.70;99.90;;;;;;5003682;28;20038;-72
2022/04/20 10:26:17;;;;;;;10.90;3.25;;;15.80;99.90;;;;;;5012956;28;20383;-72
2022/04/20 10:29:08;;;;;;;6.57;3.10;;;15.80;99.90;;;;;;5014205;28;20931;-72
2022/04/20 10:31:53;;;;;;;12.65;3.55;;;15.70;99.90;;;;;;5006975;28;20034;-71
2022/04/20 10:34:21;;;;;;;10.02;3.15;;;15.90;99.90;;;;;;5017089;28;20125;-73
2022/04/20 10:37:01;;;;;;;11.30;3.55;;;15.90;99.90;;;;;;5001934;28;20626;-72
2022/04/20 10:39:34;;;;;;;10.80;3.33;;;15.90;99.90;;;;;;5023880;28;20117;-73
2022/04/20 10:42:19;;;;;;;11.52;2.92;;;15.80;99.90;;;;;;4985790;28;20038;-72
2022/04/20 10:44:58;;;;;;;8.05;3.10;;;15.70;99.90;;;;;;5010956;28;21259;-72
2022/04/20 10:47:28;;;;;;;16.63;3.58;;;15.70;99.90;;;;;;5000261;28;20039;-73
2022/04/20 10:50:11;;;;;;;9.30;3.33;;;15.70;99.90;;;;;;5014372;28;21063;-72
2022/04/20 10:52:39;;;;;;;13.27;3.70;;;15.70;99.90;;;;;;5015082;28;20343;-71
2022/04/20 10:55:06;;;;;;;13.98;4.05;;;15.80;99.90;;;;;;5000852;28;20495;-75
2022/04/20 10:57:39;;;;;;;10.95;4.28;;;15.80;99.90;;;;;;4999804;28;20034;-72
2022/04/20 11:00:17;;;;;;;7.75;3.20;;;15.80;99.90;;;;;;4989507;28;20830;-73
2022/04/20 11:03:10;;;;;;;7.80;2.80;;;15.90;99.90;;;;;;4996102;28;20038;-74
2022/04/20 11:05:55;;;;;;;7.13;3.28;;;16.00;99.90;;;;;;5005725;28;20405;-73
2022/04/20 11:08:25;;;;;;;7.97;3.30;;;16.10;99.90;;;;;;4993172;28;20053;-74
2022/04/20 11:19:52;;;;;;;9.35;3.20;;;16.10;99.90;;;;;;4987226;28;20056;-75
2022/04/20 11:22:19;;;;;;;9.55;3.35;;;16.10;99.90;;;;;;4992241;28;20071;-76
2022/04/20 11:24:47;;;;;;;7.65;3.55;;;15.90;99.90;;;;;;5016662;28;20121;-74
2022/04/20 11:27:13;;;;;;;10.02;3.80;;;15.70;99.90;;;;;;4988363;28;20046;-74
2022/04/20 11:29:43;;;;;;;11.20;3.50;;;15.70;99.90;;;;;;4976276;28;20042;-74
2022/04/20 11:32:10;;;;;;;12.32;3.80;;;15.70;99.90;;;;;;4989275;28;20038;-74
2022/04/20 11:34:38;;;;;;;10.93;3.78;;;15.70;99.90;;;;;;5006097;28;20034;-74
2022/04/20 11:37:09;;;;;;;7.80;3.35;;;15.70;99.90;;;;;;4971171;28;20073;-74
2022/04/20 11:39:36;;;;;;;10.10;3.50;;;15.70;99.90;;;;;;5014163;28;20164;-75
2022/04/20 11:42:05;;;;;;;8.80;3.33;;;15.70;99.90;;;;;;5008500;28;20061;-73
2022/04/20 11:44:35;;;;;;;9.20;3.70;;;15.70;99.90;;;;;;4976355;28;20077;-74
2022/04/20 11:47:08;;;;;;;10.20;3.60;;;15.60;99.90;;;;;;4991088;28;20056;-73
2022/04/20 11:49:46;;;;;;;9.40;3.83;;;15.10;99.90;;;;;;5007603;28;20537;-72
2022/04/20 11:52:14;;;;;;;7.50;3.70;;;14.80;99.90;;;;;;4991005;28;20038;-72
2022/04/20 11:54:48;;;;;;;7.15;3.70;;;14.50;99.90;;;;;;5001043;28;20065;-73
2022/04/20 11:57:16;;;;;;;10.20;3.63;;;14.40;99.90;;;;;;4984853;28;20564;-73
2022/04/20 11:59:44;;;;;;;10.25;3.90;;;14.40;99.90;;;;;;4985878;28;20030;-72
2022/04/20 12:02:13;;;;;;;10.18;4.30;;;14.40;99.90;;;;;;5002870;28;20733;-73
2022/04/20 12:04:40;;;;;;;9.10;3.60;;;14.40;99.90;;;;;;4977750;28;20066;-73
2022/04/20 12:07:08;;;;;;;11.38;3.92;;;14.30;99.90;;;;;;4998134;28;20128;-72
2022/04/20 12:09:36;;;;;;;7.00;3.45;;;14.40;99.90;;;;;;4970492;28;20062;-73
2022/04/20 12:12:08;;;;;;;10.52;3.75;;;14.40;99.90;;;;;;5012836;28;20053;-72
2022/04/20 12:14:39;;;;;;;9.23;3.40;;;14.40;99.90;;;;;;5005866;28;20088;-72
2022/04/20 12:17:09;;;;;;;12.45;4.00;;;14.50;99.90;;;;;;4998646;28;20038;-74
2022/04/20 12:19:41;;;;;;;7.40;3.80;;;14.60;99.90;;;;;;4996184;28;20034;-72
2022/04/20 12:22:09;;;;;;;7.88;3.70;;;14.70;99.90;;;;;;4994590;28;20046;-72
2022/04/20 12:24:37;;;;;;;16.60;4.20;;;14.70;99.90;;;;;;4994342;28;20137;-71
2022/04/20 12:27:04;;;;;;;9.55;3.65;;;14.60;99.90;;;;;;5007493;28;20045;-72
2022/04/20 12:29:33;;;;;;;7.50;4.00;;;14.50;99.90;;;;;;5030048;28;20094;-73
2022/04/20 12:32:00;;;;;;;9.50;3.58;;;14.60;99.90;;;;;;5017872;28;20048;-72
2022/04/20 12:34:28;;;;;;;9.32;3.97;;;14.60;99.90;;;;;;5031775;28;20042;-72
2022/04/20 12:37:07;;;;;;;7.07;3.67;;;14.70;99.90;;;;;;5033222;28;20404;-73
2022/04/20 12:39:40;;;;;;;10.48;3.88;;;14.80;99.90;;;;;;4981420;28;20048;-74
2022/04/20 12:42:10;;;;;;;;;;;15.00;99.90;;;;;;4998691;28;20034;-72
2022/04/20 12:44:48;;;;;;;9.43;4.07;;;15.10;99.90;;;;;;5019143;28;20386;-73
2022/04/20 12:47:14;;;;;;;8.18;3.80;;;15.10;99.90;;;;;;4997919;28;20053;-72
2022/04/20 12:50:10;;;;;;;12.75;4.65;;;15.20;99.90;;;;;;5000775;28;20389;-74
2022/04/20 12:52:37;;;;;;;11.73;4.38;;;15.20;99.90;;;;;;5021130;28;20041;-72
2022/04/20 12:55:09;;;;;;;9.60;4.40;;;14.80;99.90;;;;;;5031594;28;20057;-72
2022/04/20 13:03:24;;;;;;;8.13;4.15;;;14.60;99.90;;;;;;4998347;28;20047;-75
2022/04/20 13:05:50;;;;;;;10.23;4.53;;;14.60;99.90;;;;;;5031600;28;20049;-72
2022/04/20 13:08:17;;;;;;;11.88;4.43;;;14.70;99.90;;;;;;5014691;28;20124;-72
2022/04/20 13:10:45;;;;;;;9.93;4.20;;;14.80;99.90;;;;;;5030364;28;20386;-72
2022/04/20 13:13:11;;;;;;;11.45;4.15;;;15.00;99.90;;;;;;5032179;28;20046;-72
2022/04/20 13:15:37;;;;;;;9.30;4.57;;;15.20;99.90;;;;;;4989559;28;20054;-73
2022/04/20 13:18:04;;;;;;;11.63;4.28;;;15.40;99.90;;;;;;5010698;28;20614;-73
2022/04/20 13:20:31;;;;;;;10.13;4.40;;;15.40;99.90;;;;;;5003195;28;20389;-72
2022/04/20 13:22:59;;;;;;;11.02;3.75;;;15.40;99.90;;;;;;5002363;28;20489;-72
2022/04/20 13:28:10;;;;;;;20.77;4.97;;;15.50;99.90;;;;;;5006177;28;20052;-71
2022/04/20 13:30:38;;;;;;;15.23;3.72;;;15.50;99.90;;;;;;5014746;28;20045;-72